sensor_id;sensor_type;location;lat;lon;timestamp;pressure;altitude;pressure_sealevel;temperature;humidity
32735;BME280;19112;51.076;3.706;2024-01-15T00:01:43;100521.16;;;6.24;68.12
32735;BME280;19112;51.076;3.706;2024-01-15T00:04:21;100527.63;;;6.13;68.52
32735;BME280;19112;51.076;3.706;2024-01-15T00:06:48;100516.56;;;5.82;70.78
32735;BME280;19112;51.076;3.706;2024-01-15T00:09:30;100495.56;;;5.78;71.84
32735;BME280;19112;51.076;3.706;2024-01-15T00:11:59;100267.72;;;4.54;71.74
32735;BME280;19112;51.076;3.706;2024-01-15T00:14:26;100446.88;;;5.58;72.16
32735;BME280;19112;51.076;3.706;2024-01-15T00:16:55;100548.66;;;6.37;71.88
32735;BME280;19112;51.076;3.706;2024-01-15T00:19:27;100504.84;;;6.28;71.74
32735;BME280;19112;51.076;3.706;2024-01-15T00:21:53;100533.41;;;6.66;71.14
32735;BME280;19112;51.076;3.706;2024-01-15T00:24:22;100500.50;;;6.48;70.67
32735;BME280;19112;51.076;3.706;2024-01-15T00:26:47;100426.72;;;6.11;70.30
32735;BME280;19112;51.076;3.706;2024-01-15T00:29:16;100294.78;;;5.53;69.91
32735;BME280;19112;51.076;3.706;2024-01-15T00:31:42;100532.25;;;6.99;69.42
32735;BME280;19112;51.076;3.706;2024-01-15T00:34:14;100487.69;;;6.74;68.97
32735;BME280;19112;51.076;3.706;2024-01-15T00:36:42;100426.13;;;6.37;69.30
32735;BME280;19112;51.076;3.706;2024-01-15T00:39:08;100463.25;;;6.51;69.30
32735;BME280;19112;51.076;3.706;2024-01-15T00:41:36;100418.84;;;6.28;69.22
32735;BME280;19112;51.076;3.706;2024-01-15T00:44:08;100467.47;;;6.68;68.86
32735;BME280;19112;51.076;3.706;2024-01-15T00:46:44;100526.25;;;7.02;68.80
32735;BME280;19112;51.076;3.706;2024-01-15T00:49:15;100518.38;;;7.00;68.44
32735;BME280;19112;51.076;3.706;2024-01-15T00:51:49;100451.88;;;6.70;68.22
32735;BME280;19112;51.076;3.706;2024-01-15T00:54:15;100515.00;;;7.03;68.08
32735;BME280;19112;51.076;3.706;2024-01-15T00:56:40;100416.94;;;6.45;68.14
32735;BME280;19112;51.076;3.706;2024-01-15T00:59:08;100472.53;;;6.86;68.55
32735;BME280;19112;51.076;3.706;2024-01-15T01:01:39;100510.13;;;7.11;68.00
32735;BME280;19112;51.076;3.706;2024-01-15T01:04:15;100504.84;;;7.09;68.28
32735;BME280;19112;51.076;3.706;2024-01-15T01:06:41;100498.91;;;7.13;68.23
32735;BME280;19112;51.076;3.706;2024-01-15T01:09:16;100498.53;;;7.04;68.52
32735;BME280;19112;51.076;3.706;2024-01-15T01:11:49;100483.06;;;6.88;68.66
32735;BME280;19112;51.076;3.706;2024-01-15T01:14:22;100472.09;;;6.75;68.83
32735;BME280;19112;51.076;3.706;2024-01-15T01:17:11;100421.28;;;6.45;68.94
32735;BME280;19112;51.076;3.706;2024-01-15T01:19:37;100353.44;;;6.03;68.71
32735;BME280;19112;51.076;3.706;2024-01-15T01:22:09;100427.69;;;6.53;69.41
32735;BME280;19112;51.076;3.706;2024-01-15T01:24:37;100268.47;;;5.66;69.35
32735;BME280;19112;51.076;3.706;2024-01-15T01:27:09;100427.06;;;6.59;69.26
32735;BME280;19112;51.076;3.706;2024-01-15T01:29:40;100464.81;;;6.88;69.37
32735;BME280;19112;51.076;3.706;2024-01-15T01:32:07;100483.75;;;7.04;69.08
32735;BME280;19112;51.076;3.706;2024-01-15T01:34:40;100343.06;;;6.24;69.09
32735;BME280;19112;51.076;3.706;2024-01-15T01:37:11;100316.09;;;6.02;69.11
32735;BME280;19112;51.076;3.706;2024-01-15T01:39:42;100350.53;;;6.16;69.41
32735;BME280;19112;51.076;3.706;2024-01-15T01:42:20;100435.03;;;6.62;69.28
32735;BME280;19112;51.076;3.706;2024-01-15T01:44:49;100446.75;;;6.71;69.27
32735;BME280;19112;51.076;3.706;2024-01-15T01:47:21;100460.03;;;6.77;69.23
32735;BME280;19112;51.076;3.706;2024-01-15T01:49:54;100453.00;;;6.76;69.54
32735;BME280;19112;51.076;3.706;2024-01-15T01:52:20;100398.69;;;6.45;69.37
32735;BME280;19112;51.076;3.706;2024-01-15T01:54:49;100467.03;;;6.99;69.28
32735;BME280;19112;51.076;3.706;2024-01-15T01:57:21;100473.38;;;7.06;68.94
32735;BME280;19112;51.076;3.706;2024-01-15T01:59:58;100390.50;;;6.57;69.28
32735;BME280;19112;51.076;3.706;2024-01-15T02:02:24;100207.47;;;5.40;68.78
32735;BME280;19112;51.076;3.706;2024-01-15T02:05:01;100473.63;;;6.91;69.22
32735;BME280;19112;51.076;3.706;2024-01-15T02:07:34;100355.06;;;6.20;69.08
32735;BME280;19112;51.076;3.706;2024-01-15T02:10:07;100472.69;;;6.89;69.24
32735;BME280;19112;51.076;3.706;2024-01-15T02:12:33;100477.66;;;6.83;69.54
32735;BME280;19112;51.076;3.706;2024-01-15T02:15:01;100470.03;;;6.88;69.06
32735;BME280;19112;51.076;3.706;2024-01-15T02:17:26;100469.84;;;6.83;69.45
32735;BME280;19112;51.076;3.706;2024-01-15T02:19:52;100336.31;;;6.08;69.11
32735;BME280;19112;51.076;3.706;2024-01-15T02:22:21;100462.06;;;6.85;69.36
32735;BME280;19112;51.076;3.706;2024-01-15T02:24:53;100458.50;;;6.82;69.25
32735;BME280;19112;51.076;3.706;2024-01-15T02:27:21;100245.97;;;5.68;68.60
32735;BME280;19112;51.076;3.706;2024-01-15T02:29:47;100252.59;;;5.60;68.58
32735;BME280;19112;51.076;3.706;2024-01-15T02:32:13;100466.19;;;6.79;68.98
32735;BME280;19112;51.076;3.706;2024-01-15T02:34:39;100453.09;;;6.78;68.69
32735;BME280;19112;51.076;3.706;2024-01-15T02:37:11;100444.44;;;6.79;69.30
32735;BME280;19112;51.076;3.706;2024-01-15T02:39:39;100455.91;;;6.82;68.86
32735;BME280;19112;51.076;3.706;2024-01-15T02:42:08;100375.72;;;6.37;68.97
32735;BME280;19112;51.076;3.706;2024-01-15T02:44:37;100455.91;;;6.82;68.77
32735;BME280;19112;51.076;3.706;2024-01-15T02:47:09;100343.25;;;6.28;68.35
32735;BME280;19112;51.076;3.706;2024-01-15T02:49:35;100440.97;;;6.59;68.52
32735;BME280;19112;51.076;3.706;2024-01-15T02:52:01;100331.16;;;6.10;68.61
32735;BME280;19112;51.076;3.706;2024-01-15T02:54:28;100274.59;;;5.88;68.42
32735;BME280;19112;51.076;3.706;2024-01-15T02:56:59;100435.78;;;6.80;68.51
32735;BME280;19112;51.076;3.706;2024-01-15T02:59:31;100437.50;;;6.79;68.48
32735;BME280;19112;51.076;3.706;2024-01-15T03:02:03;100346.09;;;6.35;68.37
32735;BME280;19112;51.076;3.706;2024-01-15T03:04:29;100227.69;;;5.67;68.13
32735;BME280;19112;51.076;3.706;2024-01-15T03:06:55;100288.63;;;6.11;68.44
32735;BME280;19112;51.076;3.706;2024-01-15T03:09:20;100356.97;;;6.45;68.16
32735;BME280;19112;51.076;3.706;2024-01-15T03:11:50;100428.28;;;6.88;68.16
32735;BME280;19112;51.076;3.706;2024-01-15T03:14:17;100431.44;;;6.80;68.01
32735;BME280;19112;51.076;3.706;2024-01-15T03:16:46;100336.88;;;6.22;68.18
32735;BME280;19112;51.076;3.706;2024-01-15T03:19:19;100439.16;;;6.77;68.31
32735;BME280;19112;51.076;3.706;2024-01-15T03:22:06;100348.69;;;6.14;68.01
32735;BME280;19112;51.076;3.706;2024-01-15T03:24:34;100433.56;;;6.68;68.43
32735;BME280;19112;51.076;3.706;2024-01-15T03:27:18;100279.81;;;5.88;68.40
32735;BME280;19112;51.076;3.706;2024-01-15T03:29:47;100389.41;;;6.52;68.31
32735;BME280;19112;51.076;3.706;2024-01-15T03:32:20;100429.63;;;6.78;68.35
32735;BME280;19112;51.076;3.706;2024-01-15T03:34:52;100352.94;;;6.33;68.64
32735;BME280;19112;51.076;3.706;2024-01-15T03:37:21;100425.97;;;6.74;68.61
32735;BME280;19112;51.076;3.706;2024-01-15T03:39:50;100320.09;;;6.15;68.04
32735;BME280;19112;51.076;3.706;2024-01-15T03:42:23;100353.94;;;6.35;68.33
32735;BME280;19112;51.076;3.706;2024-01-15T03:44:53;100431.81;;;6.90;68.05
32735;BME280;19112;51.076;3.706;2024-01-15T03:47:22;100314.94;;;6.17;68.37
32735;BME280;19112;51.076;3.706;2024-01-15T03:49:49;100407.22;;;6.62;68.43
32735;BME280;19112;51.076;3.706;2024-01-15T03:52:15;100160.78;;;5.24;68.55
32735;BME280;19112;51.076;3.706;2024-01-15T03:54:41;100340.44;;;6.24;68.56
32735;BME280;19112;51.076;3.706;2024-01-15T03:57:11;100423.38;;;6.74;68.80
32735;BME280;19112;51.076;3.706;2024-01-15T03:59:46;100289.88;;;5.80;68.78
32735;BME280;19112;51.076;3.706;2024-01-15T04:02:16;100423.06;;;6.46;69.54
32735;BME280;19112;51.076;3.706;2024-01-15T04:04:45;100414.13;;;6.41;69.98
32735;BME280;19112;51.076;3.706;2024-01-15T04:07:17;100410.00;;;6.46;69.74
32735;BME280;19112;51.076;3.706;2024-01-15T04:09:43;100309.59;;;5.93;69.95
32735;BME280;19112;51.076;3.706;2024-01-15T04:12:13;100327.41;;;6.03;69.87
32735;BME280;19112;51.076;3.706;2024-01-15T04:14:41;99863.09;;;3.34;69.59
32735;BME280;19112;51.076;3.706;2024-01-15T04:17:07;100350.94;;;6.25;69.74
32735;BME280;19112;51.076;3.706;2024-01-15T04:19:33;100418.97;;;6.52;69.74
32735;BME280;19112;51.076;3.706;2024-01-15T04:22:00;100319.94;;;6.12;69.71
32735;BME280;19112;51.076;3.706;2024-01-15T04:24:31;100396.19;;;6.48;69.53
32735;BME280;19112;51.076;3.706;2024-01-15T04:26:58;100365.28;;;6.16;69.42
32735;BME280;19112;51.076;3.706;2024-01-15T04:29:23;100338.25;;;5.93;69.31
32735;BME280;19112;51.076;3.706;2024-01-15T04:31:53;100395.38;;;6.28;69.60
32735;BME280;19112;51.076;3.706;2024-01-15T04:34:19;100399.09;;;6.14;69.56
32735;BME280;19112;51.076;3.706;2024-01-15T04:36:44;100398.94;;;6.11;70.06
32735;BME280;19112;51.076;3.706;2024-01-15T04:39:10;100392.09;;;6.13;69.86
32735;BME280;19112;51.076;3.706;2024-01-15T04:41:37;100388.25;;;6.05;70.25
32735;BME280;19112;51.076;3.706;2024-01-15T04:44:08;100331.50;;;5.78;69.94
32735;BME280;19112;51.076;3.706;2024-01-15T04:46:34;100383.53;;;5.96;70.44
32735;BME280;19112;51.076;3.706;2024-01-15T04:49:00;100420.59;;;5.91;70.55
32735;BME280;19112;51.076;3.706;2024-01-15T04:51:32;100390.47;;;5.96;70.64
32735;BME280;19112;51.076;3.706;2024-01-15T04:54:00;100356.59;;;5.76;70.50
32735;BME280;19112;51.076;3.706;2024-01-15T04:56:26;100392.94;;;5.93;70.35
32735;BME280;19112;51.076;3.706;2024-01-15T04:58:52;100387.56;;;5.90;70.78
32735;BME280;19112;51.076;3.706;2024-01-15T05:01:18;100388.38;;;5.89;70.56
32735;BME280;19112;51.076;3.706;2024-01-15T05:03:49;100403.81;;;5.84;70.25
32735;BME280;19112;51.076;3.706;2024-01-15T05:06:15;100255.00;;;4.97;70.12
32735;BME280;19112;51.076;3.706;2024-01-15T05:08:47;100317.41;;;5.35;70.73
32735;BME280;19112;51.076;3.706;2024-01-15T05:11:15;100390.19;;;5.70;70.65
32735;BME280;19112;51.076;3.706;2024-01-15T05:13:41;100245.44;;;4.79;70.54
32735;BME280;19112;51.076;3.706;2024-01-15T05:16:07;100379.06;;;5.55;70.83
32735;BME280;19112;51.076;3.706;2024-01-15T05:18:32;100353.97;;;5.38;70.91
32735;BME280;19112;51.076;3.706;2024-01-15T05:20:58;100342.00;;;5.22;71.04
32735;BME280;19112;51.076;3.706;2024-01-15T05:23:24;100308.78;;;4.98;70.88
32735;BME280;19112;51.076;3.706;2024-01-15T05:25:50;100376.88;;;5.45;71.02
32735;BME280;19112;51.076;3.706;2024-01-15T05:28:16;100246.25;;;4.58;71.19
32735;BME280;19112;51.076;3.706;2024-01-15T05:30:45;100336.13;;;5.08;71.06
32735;BME280;19112;51.076;3.706;2024-01-15T05:33:17;100337.03;;;5.09;71.46
32735;BME280;19112;51.076;3.706;2024-01-15T05:35:43;100374.00;;;5.21;71.61
32735;BME280;19112;51.076;3.706;2024-01-15T05:38:10;100144.31;;;3.91;71.00
32735;BME280;19112;51.076;3.706;2024-01-15T05:40:36;100338.28;;;4.99;71.45
32735;BME280;19112;51.076;3.706;2024-01-15T05:43:01;100372.22;;;5.20;71.49
32735;BME280;19112;51.076;3.706;2024-01-15T05:45:43;100370.66;;;5.23;71.11
32735;BME280;19112;51.076;3.706;2024-01-15T05:48:11;100138.03;;;3.86;71.05
32735;BME280;19112;51.076;3.706;2024-01-15T05:50:39;100410.16;;;5.15;71.41
32735;BME280;19112;51.076;3.706;2024-01-15T05:53:17;100362.25;;;5.11;71.60
32735;BME280;19112;51.076;3.706;2024-01-15T05:55:43;100320.13;;;4.81;71.66
32735;BME280;19112;51.076;3.706;2024-01-15T05:58:09;100235.28;;;4.28;71.03
32735;BME280;19112;51.076;3.706;2024-01-15T06:00:41;100231.78;;;4.28;71.47
32735;BME280;19112;51.076;3.706;2024-01-15T06:03:06;100281.59;;;4.55;71.41
32735;BME280;19112;51.076;3.706;2024-01-15T06:05:33;100295.84;;;4.63;71.47
32735;BME280;19112;51.076;3.706;2024-01-15T06:08:01;100223.31;;;4.14;71.39
32735;BME280;19112;51.076;3.706;2024-01-15T06:10:31;100364.06;;;4.94;71.12
32735;BME280;19112;51.076;3.706;2024-01-15T06:13:01;100312.69;;;4.71;71.37
32735;BME280;19112;51.076;3.706;2024-01-15T06:15:27;100325.75;;;4.72;71.33
32735;BME280;19112;51.076;3.706;2024-01-15T06:17:53;100178.66;;;3.85;71.37
32735;BME280;19112;51.076;3.706;2024-01-15T06:20:19;100243.81;;;4.26;71.11
32735;BME280;19112;51.076;3.706;2024-01-15T06:22:45;100361.56;;;4.96;70.88
32735;BME280;19112;51.076;3.706;2024-01-15T06:25:10;100354.72;;;4.98;71.32
32735;BME280;19112;51.076;3.706;2024-01-15T06:27:39;100282.41;;;4.54;71.11
32735;BME280;19112;51.076;3.706;2024-01-15T06:30:07;100205.09;;;4.12;70.94
32735;BME280;19112;51.076;3.706;2024-01-15T06:32:33;100248.63;;;4.36;70.65
32735;BME280;19112;51.076;3.706;2024-01-15T06:35:02;100318.34;;;4.80;70.62
32735;BME280;19112;51.076;3.706;2024-01-15T06:37:31;100229.13;;;4.26;70.58
32735;BME280;19112;51.076;3.706;2024-01-15T06:39:58;100329.25;;;4.73;70.64
32735;BME280;19112;51.076;3.706;2024-01-15T06:42:25;100359.09;;;4.99;70.34
32735;BME280;19112;51.076;3.706;2024-01-15T06:44:51;100363.06;;;4.91;70.11
32735;BME280;19112;51.076;3.706;2024-01-15T06:47:17;100370.25;;;4.96;70.06
32735;BME280;19112;51.076;3.706;2024-01-15T06:49:47;100107.25;;;3.58;69.85
32735;BME280;19112;51.076;3.706;2024-01-15T06:52:14;100360.28;;;5.06;69.33
32735;BME280;19112;51.076;3.706;2024-01-15T06:54:40;100360.28;;;5.06;69.02
32735;BME280;19112;51.076;3.706;2024-01-15T06:57:06;100293.47;;;4.50;68.87
32735;BME280;19112;51.076;3.706;2024-01-15T06:59:34;100355.69;;;4.82;69.10
32735;BME280;19112;51.076;3.706;2024-01-15T07:02:02;100313.31;;;4.47;69.26
32735;BME280;19112;51.076;3.706;2024-01-15T07:04:28;100319.91;;;4.41;68.92
32735;BME280;19112;51.076;3.706;2024-01-15T07:06:54;100354.50;;;4.58;69.11
32735;BME280;19112;51.076;3.706;2024-01-15T07:09:21;100335.94;;;4.50;69.71
32735;BME280;19112;51.076;3.706;2024-01-15T07:11:52;100105.13;;;3.15;68.88
32735;BME280;19112;51.076;3.706;2024-01-15T07:14:21;100310.84;;;4.33;69.34
32735;BME280;19112;51.076;3.706;2024-01-15T07:16:53;100354.38;;;4.55;69.71
32735;BME280;19112;51.076;3.706;2024-01-15T07:19:20;100298.22;;;4.23;69.36
32735;BME280;19112;51.076;3.706;2024-01-15T07:21:46;100319.31;;;4.29;69.37
32735;BME280;19112;51.076;3.706;2024-01-15T07:24:12;100357.69;;;4.52;69.09
32735;BME280;19112;51.076;3.706;2024-01-15T07:26:43;100143.50;;;3.22;68.54
32735;BME280;19112;51.076;3.706;2024-01-15T07:29:10;100354.38;;;4.37;68.48
32735;BME280;19112;51.076;3.706;2024-01-15T07:31:36;100352.25;;;4.30;68.24
32735;BME280;19112;51.076;3.706;2024-01-15T07:34:01;100333.69;;;4.22;68.57
32735;BME280;19112;51.076;3.706;2024-01-15T07:36:27;100330.88;;;4.35;68.41
32735;BME280;19112;51.076;3.706;2024-01-15T07:38:55;100286.31;;;4.10;68.51
32735;BME280;19112;51.076;3.706;2024-01-15T07:41:22;100379.84;;;4.62;68.51
32735;BME280;19112;51.076;3.706;2024-01-15T07:43:49;100383.44;;;4.64;67.76
32735;BME280;19112;51.076;3.706;2024-01-15T07:46:14;100385.66;;;4.74;68.40
32735;BME280;19112;51.076;3.706;2024-01-15T07:48:42;100389.28;;;4.78;67.92
32735;BME280;19112;51.076;3.706;2024-01-15T07:51:10;100309.81;;;4.29;67.43
32735;BME280;19112;51.076;3.706;2024-01-15T07:53:35;100394.78;;;4.84;67.13
32735;BME280;19112;51.076;3.706;2024-01-15T07:56:01;100399.25;;;4.86;66.71
32735;BME280;19112;51.076;3.706;2024-01-15T07:58:33;100398.66;;;4.92;66.76
32735;BME280;19112;51.076;3.706;2024-01-15T08:00:59;100430.91;;;4.95;66.70
32735;BME280;19112;51.076;3.706;2024-01-15T08:03:25;100403.84;;;5.10;66.84
32735;BME280;19112;51.076;3.706;2024-01-15T08:05:51;100416.63;;;5.23;66.09
32735;BME280;19112;51.076;3.706;2024-01-15T08:08:18;100410.88;;;5.30;65.81
32735;BME280;19112;51.076;3.706;2024-01-15T08:10:45;100416.53;;;5.39;65.90
32735;BME280;19112;51.076;3.706;2024-01-15T08:13:12;100397.81;;;5.29;65.08
32735;BME280;19112;51.076;3.706;2024-01-15T08:15:40;100447.16;;;5.64;64.97
32735;BME280;19112;51.076;3.706;2024-01-15T08:18:07;100417.72;;;5.65;63.98
32735;BME280;19112;51.076;3.706;2024-01-15T08:20:35;100353.66;;;5.12;63.54
32735;BME280;19112;51.076;3.706;2024-01-15T08:23:02;100350.91;;;5.09;63.61
32735;BME280;19112;51.076;3.706;2024-01-15T08:25:29;100421.19;;;5.46;63.80
32735;BME280;19112;51.076;3.706;2024-01-15T08:27:58;100390.59;;;5.23;63.44
32735;BME280;19112;51.076;3.706;2024-01-15T08:30:24;100422.56;;;5.38;63.81
32735;BME280;19112;51.076;3.706;2024-01-15T08:32:55;100415.63;;;5.39;63.58
32735;BME280;19112;51.076;3.706;2024-01-15T08:35:21;100424.31;;;5.39;63.85
32735;BME280;19112;51.076;3.706;2024-01-15T08:37:49;100426.72;;;5.35;63.63
32735;BME280;19112;51.076;3.706;2024-01-15T08:40:16;100377.88;;;5.11;63.61
32735;BME280;19112;51.076;3.706;2024-01-15T08:42:42;100414.94;;;5.43;63.94
32735;BME280;19112;51.076;3.706;2024-01-15T08:45:10;100394.25;;;5.46;63.64
32735;BME280;19112;51.076;3.706;2024-01-15T08:47:36;100419.84;;;5.74;63.06
32735;BME280;19112;51.076;3.706;2024-01-15T08:50:04;100422.66;;;5.78;62.20
32735;BME280;19112;51.076;3.706;2024-01-15T08:52:30;100281.50;;;5.08;61.64
32735;BME280;19112;51.076;3.706;2024-01-15T08:54:57;100415.38;;;5.91;61.58
32735;BME280;19112;51.076;3.706;2024-01-15T08:57:23;100325.47;;;5.41;60.63
32735;BME280;19112;51.076;3.706;2024-01-15T08:59:49;100343.03;;;5.45;60.87
32735;BME280;19112;51.076;3.706;2024-01-15T09:02:15;100396.75;;;5.62;59.63
32735;BME280;19112;51.076;3.706;2024-01-15T09:04:41;100351.41;;;5.20;59.75
32735;BME280;19112;51.076;3.706;2024-01-15T09:07:08;100424.28;;;5.57;60.34
32735;BME280;19112;51.076;3.706;2024-01-15T09:09:33;100349.84;;;5.23;60.70
32735;BME280;19112;51.076;3.706;2024-01-15T09:12:00;100431.69;;;5.67;60.36
32735;BME280;19112;51.076;3.706;2024-01-15T09:14:27;100402.91;;;5.45;60.39
32735;BME280;19112;51.076;3.706;2024-01-15T09:16:54;100191.44;;;4.16;60.22
32735;BME280;19112;51.076;3.706;2024-01-15T09:19:21;100291.84;;;4.69;60.87
32735;BME280;19112;51.076;3.706;2024-01-15T09:21:47;100273.03;;;4.57;60.69
32735;BME280;19112;51.076;3.706;2024-01-15T09:24:13;100445.75;;;5.71;61.28
32735;BME280;19112;51.076;3.706;2024-01-15T09:26:39;99909.78;;;2.79;61.22
32735;BME280;19112;51.076;3.706;2024-01-15T09:29:05;100265.38;;;4.78;61.06
32735;BME280;19112;51.076;3.706;2024-01-15T09:31:30;100453.97;;;5.98;61.03
32735;BME280;19112;51.076;3.706;2024-01-15T09:33:57;100449.13;;;6.07;61.09
32735;BME280;19112;51.076;3.706;2024-01-15T09:36:24;100233.44;;;5.19;60.95
32735;BME280;19112;51.076;3.706;2024-01-15T09:38:51;100448.59;;;6.54;60.47
32735;BME280;19112;51.076;3.706;2024-01-15T09:41:21;100446.75;;;6.71;60.07
32735;BME280;19112;51.076;3.706;2024-01-15T09:43:47;100401.53;;;6.30;59.68
32735;BME280;19112;51.076;3.706;2024-01-15T09:46:14;100396.94;;;6.25;59.27
32735;BME280;19112;51.076;3.706;2024-01-15T09:48:40;100231.72;;;5.00;59.09
32735;BME280;19112;51.076;3.706;2024-01-15T09:51:08;100445.69;;;6.27;59.77
32735;BME280;19112;51.076;3.706;2024-01-15T09:53:41;100460.66;;;6.32;59.92
32735;BME280;19112;51.076;3.706;2024-01-15T09:56:10;100466.16;;;6.18;60.45
32735;BME280;19112;51.076;3.706;2024-01-15T09:58:39;100473.91;;;6.17;60.36
32735;BME280;19112;51.076;3.706;2024-01-15T10:01:04;100387.28;;;5.64;60.73
32735;BME280;19112;51.076;3.706;2024-01-15T10:03:33;100470.97;;;6.09;60.76
32735;BME280;19112;51.076;3.706;2024-01-15T10:05:59;100350.34;;;5.34;60.70
32735;BME280;19112;51.076;3.706;2024-01-15T10:08:26;100439.09;;;5.77;60.75
32735;BME280;19112;51.076;3.706;2024-01-15T10:10:52;100455.69;;;5.79;60.79
32735;BME280;19112;51.076;3.706;2024-01-15T10:13:19;100478.72;;;5.90;61.00
32735;BME280;19112;51.076;3.706;2024-01-15T10:15:48;100483.56;;;6.00;61.11
32735;BME280;19112;51.076;3.706;2024-01-15T10:18:13;100483.09;;;5.91;61.08
32735;BME280;19112;51.076;3.706;2024-01-15T10:20:40;100360.69;;;5.33;61.27
32735;BME280;19112;51.076;3.706;2024-01-15T10:23:06;100499.75;;;6.32;61.33
32735;BME280;19112;51.076;3.706;2024-01-15T10:25:35;100483.00;;;6.46;61.03
32735;BME280;19112;51.076;3.706;2024-01-15T10:28:03;100451.06;;;6.30;60.65
32735;BME280;19112;51.076;3.706;2024-01-15T10:30:30;100511.19;;;6.54;59.68
32735;BME280;19112;51.076;3.706;2024-01-15T10:33:03;100507.78;;;6.55;59.98
32735;BME280;19112;51.076;3.706;2024-01-15T10:35:34;100465.19;;;6.36;59.80
32735;BME280;19112;51.076;3.706;2024-01-15T10:38:01;100516.81;;;6.44;59.30
32735;BME280;19112;51.076;3.706;2024-01-15T10:40:29;100493.75;;;6.13;59.23
32735;BME280;19112;51.076;3.706;2024-01-15T10:42:57;100434.44;;;5.70;59.02
32735;BME280;19112;51.076;3.706;2024-01-15T10:45:23;100514.09;;;6.22;59.46
32735;BME280;19112;51.076;3.706;2024-01-15T10:47:49;100427.81;;;5.59;59.17
32735;BME280;19112;51.076;3.706;2024-01-15T10:50:15;100520.50;;;5.73;59.46
32735;BME280;19112;51.076;3.706;2024-01-15T10:52:42;100520.44;;;5.72;59.90
32735;BME280;19112;51.076;3.706;2024-01-15T10:55:11;100480.69;;;5.39;60.28
32735;BME280;19112;51.076;3.706;2024-01-15T10:57:38;100277.16;;;4.16;60.59
32735;BME280;19112;51.076;3.706;2024-01-15T11:00:05;100520.22;;;5.67;60.75
32735;BME280;19112;51.076;3.706;2024-01-15T11:02:38;99905.19;;;2.05;60.22
32735;BME280;19112;51.076;3.706;2024-01-15T11:05:04;100541.91;;;5.86;60.66
32735;BME280;19112;51.076;3.706;2024-01-15T11:07:34;100519.09;;;5.98;60.66
32735;BME280;19112;51.076;3.706;2024-01-15T11:10:04;100386.66;;;5.13;60.67
32735;BME280;19112;51.076;3.706;2024-01-15T11:12:33;100413.09;;;5.40;60.84
32735;BME280;19112;51.076;3.706;2024-01-15T11:15:03;100474.91;;;5.64;61.21
32735;BME280;19112;51.076;3.706;2024-01-15T11:18:00;100466.47;;;5.87;61.05
32735;BME280;19112;51.076;3.706;2024-01-15T11:20:27;100457.41;;;5.79;60.97
32735;BME280;19112;51.076;3.706;2024-01-15T11:22:55;100508.38;;;6.11;60.90
32735;BME280;19112;51.076;3.706;2024-01-15T11:25:23;100496.34;;;6.13;60.66
32735;BME280;19112;51.076;3.706;2024-01-15T11:27:51;100455.94;;;5.86;60.92
32735;BME280;19112;51.076;3.706;2024-01-15T11:30:19;100504.34;;;6.18;61.04
32735;BME280;19112;51.076;3.706;2024-01-15T11:32:48;100504.75;;;6.27;60.66
32735;BME280;19112;51.076;3.706;2024-01-15T11:35:14;100516.03;;;6.26;60.83
32735;BME280;19112;51.076;3.706;2024-01-15T11:43:00;100524.72;;;6.46;61.08
32735;BME280;19112;51.076;3.706;2024-01-15T11:45:27;100521.28;;;6.66;60.66
32735;BME280;19112;51.076;3.706;2024-01-15T11:48:15;100422.25;;;6.27;59.85
32735;BME280;19112;51.076;3.706;2024-01-15T11:50:45;100272.16;;;5.71;60.01
32735;BME280;19112;51.076;3.706;2024-01-15T11:53:47;100502.28;;;6.90;58.84
32735;BME280;19112;51.076;3.706;2024-01-15T11:56:22;100520.03;;;6.77;58.01
32735;BME280;19112;51.076;3.706;2024-01-15T11:58:48;100528.34;;;6.69;59.01
32735;BME280;19112;51.076;3.706;2024-01-15T12:01:16;100463.72;;;6.42;58.79
32735;BME280;19112;51.076;3.706;2024-01-15T12:03:42;100449.81;;;6.42;59.20
32735;BME280;19112;51.076;3.706;2024-01-15T12:06:10;100578.09;;;6.93;58.81
32735;BME280;19112;51.076;3.706;2024-01-15T12:08:37;100545.41;;;6.81;59.16
32735;BME280;19112;51.076;3.706;2024-01-15T12:11:13;100491.50;;;6.61;60.10
32735;BME280;19112;51.076;3.706;2024-01-15T12:13:43;100513.41;;;6.86;60.03
32735;BME280;19112;51.076;3.706;2024-01-15T12:16:10;100372.06;;;6.12;59.87
32735;BME280;19112;51.076;3.706;2024-01-15T12:18:44;100552.19;;;7.18;59.47
32735;BME280;19112;51.076;3.706;2024-01-15T12:21:10;100553.69;;;7.13;59.37
32735;BME280;19112;51.076;3.706;2024-01-15T12:23:36;100510.94;;;7.09;59.22
32735;BME280;19112;51.076;3.706;2024-01-15T12:26:03;100439.84;;;6.73;59.13
32735;BME280;19112;51.076;3.706;2024-01-15T12:28:29;100540.22;;;7.23;58.75
32735;BME280;19112;51.076;3.706;2024-01-15T12:30:56;100523.34;;;7.15;59.00
32735;BME280;19112;51.076;3.706;2024-01-15T12:33:22;100455.63;;;6.76;59.66
32735;BME280;19112;51.076;3.706;2024-01-15T12:35:48;100537.09;;;7.53;59.01
32735;BME280;19112;51.076;3.706;2024-01-15T12:38:15;100408.16;;;6.64;58.40
32735;BME280;19112;51.076;3.706;2024-01-15T12:40:44;100552.41;;;7.66;58.57
32735;BME280;19112;51.076;3.706;2024-01-15T12:43:12;100473.31;;;7.25;58.34
32735;BME280;19112;51.076;3.706;2024-01-15T12:45:37;100552.94;;;7.57;57.94
32735;BME280;19112;51.076;3.706;2024-01-15T12:48:04;100267.19;;;5.57;58.57
32735;BME280;19112;51.076;3.706;2024-01-15T12:50:31;100555.94;;;7.04;58.95
32735;BME280;19112;51.076;3.706;2024-01-15T12:52:58;100518.38;;;6.79;59.06
32735;BME280;19112;51.076;3.706;2024-01-15T12:55:27;100548.22;;;7.07;59.83
32735;BME280;19112;51.076;3.706;2024-01-15T12:57:58;100545.38;;;7.01;59.38
32735;BME280;19112;51.076;3.706;2024-01-15T13:00:24;100538.88;;;7.12;59.43
32735;BME280;19112;51.076;3.706;2024-01-15T13:02:51;100560.00;;;7.39;58.80
32735;BME280;19112;51.076;3.706;2024-01-15T13:05:18;100508.03;;;7.24;57.60
32735;BME280;19112;51.076;3.706;2024-01-15T13:07:46;100524.63;;;7.25;57.51
32735;BME280;19112;51.076;3.706;2024-01-15T13:10:12;100571.09;;;7.54;57.58
32735;BME280;19112;51.076;3.706;2024-01-15T13:12:40;100489.19;;;7.09;58.99